Aérodrome :
LOGIN :

S'inscrire | Disclaimer

   EN    FR    IT 

 










Légende :    VFR   VFR Marginal   IFR   IFR Intensif   IFR Très Intensif
Visi : 
Plafond : 
>= 8 km
>= 3000ft
5 à 8 km
1000 à 3000 ft
1500m à 5 km
500 à 1000 ft
800 à 1500m
200 à 500 ft
< 800m
< 200 ft
Symboles :   Orages  Brouillard  Fortes neiges  Fortes précipitations  Vent > 20 kt
SIGMETs :   Divers  Orages  Givrage  Turbulence  Onde Orograph.  Cendres Volcan.






- Altitude de l'aérodrome : 141 ft
- Code IATA : SKS


EKSP - Srydstrup Vojens

DERNIER METAR :
  • 281050Z 30007KT 260V010 9999 FEW030 SCT180 15/06 Q1033 NOSIG

METARs EXPIRÉS :
  • 281020Z 31007KT 260V350 9999 FEW030 SCT180 15/07 Q1033 NOSIG
  • 280950Z 33007KT 270V020 9999 FEW030 SCT200 14/06 Q1033 NOSIG
  • 280920Z 30007G17KT 240V350 9999 SCT028 14/06 Q1033 NOSIG
  • 280850Z 34007KT 300V020 9999 SCT028 13/07 Q1033 NOSIG
  • 280820Z 31008KT 280V010 9999 SCT028 12/06 Q1033 NOSIG

TAF TAF EKSP
Valide du 28 à 09h jusqu'au 29 à 09h UTC


280814Z 2809/2909 33010KT 9999 FEW200
BECMG 2820/2822 VRB03KT
TEMPO 2900/2905 0200 FG



MET'MAP, la Météo Aéronautique d'un coup d'oeil ! - Copyright ORBIFLY Décembre 2007 - Disclaimer

ORBIFLY MET'MAP TEAM :

Programmation & Développement : Alexandra Zaïnal
Sur une idée originale de : Baudouin d'Aumeries
Assistance à la programmation : Marc-Olivier Méhu
Soutien technique & logistique : Manuel Goepfert

Contact : metmap@orbifly.com




SOURCES & CREDITS :

   NOAA